Mina, South Dakota
Current Conditions -  °F | °C
As of 8:37 AM on Thursday 30 Oct 2014 (Local Time) from KABR Reporting Station
Broken Clouds Broken Clouds  
Wind Chill: 29°   Ceiling: 900
Heat Index: 38°   Visibility: 10mi
Dew Point: 35°   Wind: 17mph
Humidity: 89%   Direction: 340°NNW
Pressure: 30.12"   Gusts: NA
Location:  45.43°N, 98.76°W
Report Text: KABR 301337Z AUTO 34015KT 10SM BKN009 03/02 A3012 RMK AO2 PRESRR T00330017
Loading
Personal Weather Stations






























Interactive Weather Map
Tropical Storm Tracking
New forecast layout! Learn more

10-Day Weather Forecast

Advertisements
Track Severe Weather on mobile